createdAt,value
2023-05-23T00:02:02.710Z,96315.72
2023-05-23T00:04:30.963Z,96317.47
2023-05-23T00:07:06.969Z,96305.81
2023-05-23T00:09:37.899Z,96313.75
2023-05-23T00:12:07.095Z,96312.88
2023-05-23T00:14:40.233Z,96065.84
2023-05-23T00:17:13.650Z,96276.13
2023-05-23T00:19:41.453Z,96313.81
2023-05-23T00:22:09.644Z,96310.31
2023-05-23T00:24:40.690Z,96305.19
2023-05-23T00:27:12.348Z,96296.63
2023-05-23T00:29:43.379Z,96274.81
2023-05-23T00:32:12.599Z,96318.09
2023-05-23T00:34:40.470Z,96323.28
2023-05-23T00:37:11.494Z,96334.94
2023-05-23T00:39:39.564Z,96139.03
2023-05-23T00:42:10.922Z,96329.03
2023-05-23T00:44:38.800Z,96307.09
2023-05-23T00:47:08.746Z,96330.09
2023-05-23T00:49:42.001Z,96331.19
2023-05-23T00:52:09.909Z,96339.81
2023-05-23T00:54:38.170Z,96341.00
2023-05-23T00:57:07.114Z,96334.09
2023-05-23T00:59:43.975Z,96329.13
2023-05-23T01:02:17.422Z,96341.38
2023-05-23T01:04:45.534Z,96320.44
2023-05-23T01:07:16.542Z,96332.66
2023-05-23T01:09:45.834Z,96330.63
2023-05-23T01:12:19.716Z,96338.81
2023-05-23T01:14:52.686Z,96336.06
2023-05-23T01:17:30.844Z,96339.13
2023-05-23T01:20:13.432Z,96294.38
2023-05-23T01:23:01.101Z,96337.72
2023-05-23T01:25:46.859Z,96319.44
2023-05-23T01:28:20.899Z,96338.38
2023-05-23T01:30:52.076Z,96317.16
2023-05-23T01:33:21.830Z,96311.00
2023-05-23T01:35:52.482Z,96343.78
2023-05-23T01:38:20.262Z,96340.53
2023-05-23T01:40:48.084Z,96279.72
2023-05-23T01:43:22.163Z,96340.72
2023-05-23T01:45:51.942Z,96337.19
2023-05-23T01:48:21.708Z,96331.63
2023-05-23T01:50:49.592Z,96348.69
2023-05-23T01:53:19.760Z,96346.25
2023-05-23T01:55:49.144Z,96338.84
2023-05-23T01:58:22.706Z,96341.44
2023-05-23T02:00:52.792Z,96341.81
2023-05-23T02:03:23.675Z,96345.72
2023-05-23T02:05:51.526Z,96346.28
2023-05-23T02:08:22.264Z,96334.13
2023-05-23T02:10:50.063Z,96325.81
2023-05-23T02:13:22.001Z,96338.16
2023-05-23T02:15:49.913Z,96337.78
2023-05-23T02:18:21.483Z,96347.19
2023-05-23T02:20:51.052Z,96339.78
2023-05-23T02:23:22.128Z,96341.25
2023-05-23T02:25:49.953Z,96436.69
2023-05-23T02:28:20.167Z,96330.34
2023-05-23T02:30:48.080Z,96334.56
2023-05-23T02:33:16.955Z,96342.13
2023-05-23T02:35:44.747Z,96346.25
2023-05-23T02:38:12.490Z,96344.78
2023-05-23T02:40:42.829Z,96351.63
2023-05-23T02:43:11.117Z,96333.75
2023-05-23T02:45:42.669Z,96355.44
2023-05-23T02:48:13.197Z,96355.38
2023-05-23T02:50:41.215Z,96303.09
2023-05-23T02:53:11.747Z,96355.56
2023-05-23T02:55:39.668Z,96353.75
2023-05-23T02:58:11.867Z,96359.59
2023-05-23T03:00:43.211Z,96338.78
2023-05-23T03:03:11.999Z,96357.41
2023-05-23T03:05:40.290Z,96365.44
2023-05-23T03:08:08.843Z,96362.28
2023-05-23T03:10:36.683Z,96365.03
2023-05-23T03:13:06.362Z,96382.47
2023-05-23T03:15:36.250Z,96325.81
2023-05-23T03:18:06.978Z,96360.59
2023-05-23T03:20:37.417Z,96323.19
2023-05-23T03:23:05.471Z,96354.78
2023-05-23T03:25:33.543Z,96374.19
2023-05-23T03:28:03.828Z,96373.06
2023-05-23T03:30:31.627Z,96374.75
2023-05-23T03:33:04.023Z,96373.28
2023-05-23T03:35:33.432Z,96381.41
2023-05-23T03:38:04.058Z,96373.28
2023-05-23T03:40:34.925Z,96376.81
2023-05-23T03:43:03.827Z,96374.47
2023-05-23T03:45:35.096Z,96339.47
2023-05-23T03:48:09.715Z,96386.72
2023-05-23T03:50:39.102Z,96382.91
2023-05-23T03:53:07.296Z,96371.22
2023-05-23T03:55:39.018Z,96352.25
2023-05-23T03:58:11.235Z,96382.38
2023-05-23T04:00:41.432Z,96380.56
2023-05-23T04:03:14.703Z,96391.09
2023-05-23T04:05:48.539Z,96379.97
2023-05-23T04:08:22.140Z,96385.66
2023-05-23T04:10:50.232Z,96384.94
2023-05-23T04:13:32.528Z,96376.91
2023-05-23T04:16:05.847Z,96340.94
2023-05-23T04:18:39.041Z,96388.19
2023-05-23T04:21:08.632Z,96383.03
2023-05-23T04:23:37.965Z,96384.69
2023-05-23T04:26:10.195Z,96389.38
2023-05-23T04:28:43.995Z,96422.03
2023-05-23T04:31:16.621Z,96387.81
2023-05-23T04:33:45.768Z,96391.69
2023-05-23T04:36:18.213Z,96433.19
2023-05-23T04:38:46.306Z,96401.94
2023-05-23T04:41:16.334Z,96398.94
2023-05-23T04:43:46.436Z,96406.75
2023-05-23T04:46:14.718Z,96409.47
2023-05-23T04:48:44.132Z,96400.06
2023-05-23T04:51:14.418Z,96415.09
2023-05-23T04:53:44.596Z,96404.16
2023-05-23T04:56:29.297Z,96420.38
2023-05-23T04:58:57.682Z,96419.16
2023-05-23T05:01:25.949Z,96414.66
2023-05-23T05:03:54.198Z,96419.28
2023-05-23T05:06:24.905Z,96400.34
2023-05-23T05:08:54.702Z,96392.88
2023-05-23T05:11:25.220Z,96429.66
2023-05-23T05:13:56.199Z,96421.75
2023-05-23T05:16:29.876Z,96390.09
2023-05-23T05:18:57.967Z,96436.34
2023-05-23T05:21:26.193Z,96424.66
2023-05-23T05:23:55.351Z,96417.66
2023-05-23T05:26:25.277Z,96425.59
2023-05-23T05:28:55.510Z,96426.88
2023-05-23T05:31:29.019Z,96429.38
2023-05-23T05:33:57.041Z,96424.28
2023-05-23T05:36:25.055Z,96424.00
2023-05-23T05:38:53.452Z,96423.34
2023-05-23T05:41:24.447Z,96423.31
2023-05-23T05:43:52.451Z,96416.34
2023-05-23T05:46:20.502Z,96410.84
2023-05-23T05:48:50.989Z,96429.03
2023-05-23T05:51:24.117Z,96434.28
2023-05-23T05:53:54.768Z,96433.53
2023-05-23T05:56:26.273Z,96430.63
2023-05-23T05:59:06.593Z,96433.81
2023-05-23T06:04:18.017Z,96439.06
2023-05-23T06:06:49.171Z,96408.38
2023-05-23T06:09:17.435Z,96422.41
2023-05-23T06:11:48.922Z,96438.59
2023-05-23T06:14:17.453Z,96434.28
2023-05-23T06:16:46.549Z,96439.22
2023-05-23T06:19:16.529Z,96435.59
2023-05-23T06:21:44.371Z,96284.88
2023-05-23T06:24:14.642Z,96438.75
2023-05-23T06:26:42.528Z,96440.81
2023-05-23T06:29:12.684Z,96402.06
2023-05-23T06:31:43.088Z,96441.22
2023-05-23T06:34:10.928Z,96437.69
2023-05-23T06:36:42.984Z,96459.72
2023-05-23T06:39:11.022Z,96461.16
2023-05-23T06:41:44.690Z,96473.41
2023-05-23T06:44:22.301Z,96454.41
2023-05-23T06:46:57.606Z,96474.31
2023-05-23T06:49:28.106Z,96478.19
2023-05-23T06:51:58.583Z,96489.81
2023-05-23T06:54:26.597Z,96493.19
2023-05-23T06:56:57.935Z,96491.03
2023-05-23T06:59:35.172Z,96489.84
2023-05-23T07:02:10.830Z,96470.44
2023-05-23T07:04:38.754Z,96511.47
2023-05-23T07:07:06.752Z,96493.09
2023-05-23T07:09:34.811Z,96513.41
2023-05-23T07:12:05.982Z,96519.88
2023-05-23T07:14:38.333Z,96512.91
2023-05-23T07:17:06.853Z,96522.69
2023-05-23T07:19:49.605Z,96528.16
2023-05-23T07:22:17.905Z,96534.03
2023-05-23T07:24:51.269Z,96509.59
2023-05-23T07:27:21.320Z,96524.34
2023-05-23T07:29:51.061Z,96520.44
2023-05-23T07:32:22.857Z,96523.97
2023-05-23T07:34:53.318Z,96528.34
2023-05-23T07:37:27.452Z,96480.91
2023-05-23T07:39:55.670Z,96519.13
2023-05-23T07:42:23.872Z,96527.09
2023-05-23T07:44:58.169Z,96530.16
2023-05-23T07:47:26.189Z,96526.50
2023-05-23T07:49:56.859Z,96526.22
2023-05-23T07:52:24.748Z,96527.91
2023-05-23T07:54:53.037Z,96533.28
2023-05-23T07:57:27.102Z,96494.38
2023-05-23T08:00:02.605Z,96541.03
2023-05-23T08:02:31.800Z,96544.59
2023-05-23T08:04:59.874Z,96462.22
2023-05-23T08:07:31.206Z,96547.91
2023-05-23T08:09:59.357Z,96547.66
2023-05-23T08:12:27.344Z,96556.22
2023-05-23T08:14:57.375Z,96552.56
2023-05-23T08:17:28.020Z,96557.31
2023-05-23T08:19:56.194Z,96549.91
2023-05-23T08:22:26.954Z,96555.63
2023-05-23T08:24:55.284Z,96550.84
2023-05-23T08:27:23.219Z,96551.13
2023-05-23T08:29:51.389Z,96550.88
2023-05-23T08:32:22.646Z,96553.69
2023-05-23T08:34:53.001Z,96528.28
2023-05-23T08:37:20.782Z,96556.56
2023-05-23T08:39:56.481Z,96555.16
2023-05-23T08:42:24.941Z,96550.00
2023-05-23T08:44:56.857Z,96555.66
2023-05-23T08:47:25.040Z,96553.44
2023-05-23T08:49:58.204Z,96567.75
2023-05-23T08:52:27.042Z,96574.16
2023-05-23T08:54:57.821Z,96551.00
2023-05-23T08:57:28.962Z,96560.91
2023-05-23T09:00:10.858Z,96573.59
2023-05-23T09:02:46.128Z,96564.47
2023-05-23T09:05:20.536Z,96568.72
2023-05-23T09:07:52.291Z,96525.44
2023-05-23T09:10:23.469Z,96579.34
2023-05-23T09:12:52.304Z,96581.91
2023-05-23T09:15:20.819Z,96583.66
2023-05-23T09:17:50.865Z,96552.31
2023-05-23T09:20:20.206Z,96392.53
2023-05-23T09:22:50.619Z,96583.50
2023-05-23T09:25:21.816Z,96575.06
2023-05-23T09:27:53.145Z,96582.91
2023-05-23T09:30:24.191Z,96569.03
2023-05-23T09:33:05.627Z,96564.47
2023-05-23T09:35:35.536Z,96573.78
2023-05-23T09:38:03.938Z,96572.78
2023-05-23T09:40:33.722Z,96577.16
2023-05-23T09:43:04.433Z,96577.88
2023-05-23T09:45:35.144Z,96572.66
2023-05-23T09:48:03.089Z,96533.41
2023-05-23T09:50:33.738Z,96578.66
2023-05-23T09:53:03.820Z,96564.69
2023-05-23T09:55:33.210Z,96545.13
2023-05-23T09:58:01.419Z,96536.97
2023-05-23T10:00:33.307Z,96583.75
2023-05-23T10:03:12.513Z,96566.03
2023-05-23T10:05:46.856Z,96575.69
2023-05-23T10:08:22.475Z,96574.66
2023-05-23T10:11:35.460Z,96559.06
2023-05-23T10:14:04.788Z,96576.88
2023-05-23T10:16:41.031Z,96569.91
2023-05-23T10:19:14.912Z,96580.66
2023-05-23T10:21:46.892Z,96582.63
2023-05-23T10:24:17.102Z,96577.81
2023-05-23T10:26:45.234Z,96563.38
2023-05-23T10:29:14.299Z,96578.81
2023-05-23T10:31:42.660Z,96586.84
2023-05-23T10:34:28.372Z,96561.53
2023-05-23T10:37:05.766Z,96551.28
2023-05-23T10:39:45.255Z,96528.53
2023-05-23T10:42:17.536Z,96582.50
2023-05-23T10:44:48.401Z,96583.66
2023-05-23T10:47:28.375Z,96581.66
2023-05-23T10:49:57.401Z,96533.44
2023-05-23T10:52:27.006Z,96582.13
2023-05-23T10:55:02.676Z,96581.22
2023-05-23T10:57:30.821Z,96581.50
2023-05-23T11:00:11.348Z,96560.66
2023-05-23T11:02:44.476Z,96580.16
2023-05-23T11:05:28.310Z,96574.50
2023-05-23T11:08:13.909Z,96591.25
2023-05-23T11:11:01.005Z,96596.22
2023-05-23T11:13:56.299Z,96586.13
2023-05-23T11:16:35.129Z,96595.97
2023-05-23T11:19:27.972Z,96604.88
2023-05-23T11:21:58.961Z,96593.84
2023-05-23T11:24:50.193Z,96606.38
2023-05-23T11:27:29.052Z,96517.69
2023-05-23T11:30:05.084Z,96607.56
2023-05-23T11:32:39.980Z,96599.34
2023-05-23T11:35:18.608Z,96592.91
2023-05-23T11:37:49.172Z,96596.91
2023-05-23T11:40:35.872Z,96600.28
2023-05-23T11:43:08.833Z,96593.53
2023-05-23T11:45:37.953Z,96603.13
2023-05-23T11:48:10.244Z,96601.03
2023-05-23T11:50:45.510Z,96586.91
2023-05-23T11:53:19.171Z,96600.13
2023-05-23T11:55:55.027Z,96586.94
2023-05-23T11:58:27.911Z,96600.81
2023-05-23T12:01:03.075Z,96583.13
2023-05-23T12:03:34.378Z,96577.84
2023-05-23T12:06:03.161Z,96544.94
2023-05-23T12:08:31.438Z,96569.81
2023-05-23T12:11:00.340Z,96571.69
2023-05-23T12:13:30.976Z,96572.66
2023-05-23T12:16:01.496Z,96566.88
2023-05-23T12:18:31.727Z,96583.44
2023-05-23T12:21:01.167Z,96584.19
2023-05-23T12:23:34.725Z,96565.19
2023-05-23T12:26:07.060Z,96569.13
2023-05-23T12:28:40.426Z,96569.22
2023-05-23T12:31:12.742Z,96570.19
2023-05-23T12:33:44.240Z,96578.16
2023-05-23T12:36:15.086Z,96580.25
2023-05-23T12:38:45.414Z,96569.41
2023-05-23T12:41:19.577Z,96563.22
2023-05-23T12:43:56.483Z,96566.34
2023-05-23T12:46:25.677Z,96510.88
2023-05-23T12:48:57.500Z,96548.44
2023-05-23T12:51:27.237Z,96547.00
2023-05-23T12:53:56.668Z,96549.66
2023-05-23T12:56:37.498Z,96522.84
2023-05-23T12:59:09.211Z,96530.50
2023-05-23T13:01:37.153Z,96530.97
2023-05-23T13:04:05.076Z,96536.09
2023-05-23T13:06:33.594Z,96539.13
2023-05-23T13:09:04.751Z,96537.88
2023-05-23T13:11:44.826Z,96540.63
2023-05-23T13:14:22.941Z,96530.53
2023-05-23T13:16:50.908Z,96510.72
2023-05-23T13:19:18.990Z,96553.09
2023-05-23T13:21:50.251Z,96566.44
2023-05-23T13:24:18.573Z,96562.44
2023-05-23T13:26:51.291Z,96560.25
2023-05-23T13:29:21.456Z,96566.38
2023-05-23T13:31:52.442Z,96560.97
2023-05-23T13:34:22.625Z,96566.97
2023-05-23T13:36:52.569Z,96597.19
2023-05-23T13:39:23.958Z,96566.03
2023-05-23T13:41:56.059Z,96572.69
2023-05-23T13:44:32.590Z,96568.13
2023-05-23T13:47:14.234Z,96502.97
2023-05-23T13:49:47.568Z,96581.50
2023-05-23T13:52:15.772Z,96575.41
2023-05-23T13:54:46.379Z,96552.97
2023-05-23T13:57:20.838Z,96576.44
2023-05-23T13:59:56.455Z,96570.56
2023-05-23T14:02:31.954Z,96569.75
2023-05-23T14:05:01.374Z,96569.59
2023-05-23T14:07:29.999Z,96520.47
2023-05-23T14:10:00.604Z,96523.25
2023-05-23T14:12:28.569Z,96587.38
2023-05-23T14:14:59.237Z,96544.09
2023-05-23T14:17:27.514Z,96551.16
2023-05-23T14:20:01.304Z,96547.47
2023-05-23T14:22:29.622Z,96544.41
2023-05-23T14:24:59.919Z,96463.88
2023-05-23T14:27:28.110Z,96558.41
2023-05-23T14:30:08.509Z,96561.66
2023-05-23T14:32:41.631Z,96534.66
2023-05-23T14:35:42.287Z,96504.47
2023-05-23T14:38:03.416Z,96548.75
2023-05-23T14:40:31.159Z,96557.72
2023-05-23T14:43:09.857Z,96555.59
2023-05-23T14:45:43.323Z,96548.59
2023-05-23T14:48:12.407Z,96551.97
2023-05-23T14:50:51.964Z,96547.13
2023-05-23T14:53:22.353Z,96545.50
2023-05-23T14:55:56.382Z,96525.41
2023-05-23T14:58:34.226Z,96519.53
2023-05-23T15:01:03.758Z,96543.16
2023-05-23T15:03:31.888Z,96545.69
2023-05-23T15:06:06.333Z,96552.31
2023-05-23T15:08:34.319Z,96553.44
2023-05-23T15:11:04.182Z,96549.84
2023-05-23T15:13:34.277Z,96551.72
2023-05-23T15:16:05.076Z,96507.44
2023-05-23T15:18:40.729Z,96550.78
2023-05-23T15:21:13.639Z,96541.53
2023-05-23T15:23:41.774Z,96551.25
2023-05-23T15:26:13.701Z,96551.97
2023-05-23T15:28:43.564Z,96549.50
2023-05-23T15:31:19.639Z,96528.47
2023-05-23T15:33:48.630Z,96547.91
2023-05-23T15:36:16.478Z,96549.34
2023-05-23T15:38:48.011Z,96498.59
2023-05-23T15:41:17.791Z,96552.50
2023-05-23T15:43:51.634Z,96549.97
2023-05-23T15:46:20.951Z,96549.97
2023-05-23T15:48:51.618Z,96547.16
2023-05-23T15:51:22.447Z,96545.41
2023-05-23T15:56:26.377Z,96548.53
2023-05-23T15:58:55.061Z,96543.75
2023-05-23T16:01:24.461Z,96526.44
2023-05-23T16:03:54.722Z,96530.22
2023-05-23T16:06:23.011Z,96536.03
2023-05-23T16:08:55.488Z,96539.00
2023-05-23T16:11:41.181Z,96548.72
2023-05-23T16:14:11.716Z,96544.09
2023-05-23T16:16:47.443Z,96471.38
2023-05-23T16:19:15.611Z,96543.59
2023-05-23T16:21:45.892Z,96548.25
2023-05-23T16:24:19.635Z,96511.56
2023-05-23T16:26:50.241Z,96546.78
2023-05-23T16:29:19.134Z,96529.13
2023-05-23T16:31:48.412Z,96514.38
2023-05-23T16:34:16.561Z,96535.91
2023-05-23T16:36:44.422Z,96555.16
2023-05-23T16:39:15.382Z,96551.16
2023-05-23T16:41:43.685Z,96547.38
2023-05-23T16:44:14.007Z,96527.41
2023-05-23T16:46:44.913Z,96550.34
2023-05-23T16:49:14.715Z,96529.06
2023-05-23T16:51:42.574Z,96547.72
2023-05-23T16:54:13.398Z,96511.28
2023-05-23T16:56:44.477Z,96540.28
2023-05-23T16:59:14.690Z,96528.28
2023-05-23T17:01:42.719Z,96543.59
2023-05-23T17:04:10.724Z,96547.31
2023-05-23T17:06:44.378Z,96549.31
2023-05-23T17:09:14.744Z,96537.69
2023-05-23T17:11:44.573Z,96549.22
2023-05-23T17:14:14.834Z,96542.66
2023-05-23T17:16:45.896Z,96560.00
2023-05-23T17:19:23.969Z,96555.03
2023-05-23T17:22:07.598Z,96550.31
2023-05-23T17:24:36.606Z,96555.56
2023-05-23T17:27:05.259Z,96556.47
2023-05-23T17:29:33.390Z,96549.72
2023-05-23T17:32:01.209Z,96548.31
2023-05-23T17:34:31.866Z,96557.41
2023-05-23T17:37:01.089Z,96551.00
2023-05-23T17:39:31.411Z,96564.31
2023-05-23T17:42:15.028Z,96572.50
2023-05-23T17:44:46.156Z,96531.69
2023-05-23T17:47:14.294Z,96556.03
2023-05-23T17:49:46.738Z,96571.81
2023-05-23T17:52:16.164Z,96556.88
2023-05-23T17:54:43.913Z,96574.47
2023-05-23T17:57:11.904Z,96577.13
2023-05-23T17:59:39.700Z,96576.31
2023-05-23T18:02:13.547Z,96575.50
2023-05-23T18:04:42.788Z,96590.81
2023-05-23T18:07:13.620Z,96577.06
2023-05-23T18:09:43.201Z,96547.16
2023-05-23T18:12:14.098Z,96598.19
2023-05-23T18:14:42.601Z,96560.31
2023-05-23T18:17:11.119Z,96600.47
2023-05-23T18:19:45.405Z,96602.72
2023-05-23T18:22:19.798Z,96569.31
2023-05-23T18:24:49.256Z,96589.94
2023-05-23T18:27:21.445Z,96609.66
2023-05-23T18:29:49.271Z,96568.25
2023-05-23T18:32:20.838Z,96606.66
2023-05-23T18:34:48.674Z,96600.75
2023-05-23T18:37:19.191Z,96563.31
2023-05-23T18:39:52.815Z,96597.47
2023-05-23T18:42:22.881Z,96614.34
2023-05-23T18:44:53.485Z,96615.00
2023-05-23T18:47:21.528Z,96606.13
2023-05-23T18:49:50.305Z,96619.63
2023-05-23T18:52:18.190Z,96594.66
2023-05-23T18:54:46.022Z,96635.47
2023-05-23T18:57:17.756Z,96632.38
2023-05-23T18:59:46.904Z,96633.72
2023-05-23T19:02:17.470Z,96634.09
2023-05-23T19:04:48.735Z,96637.94
2023-05-23T19:07:16.776Z,96645.72
2023-05-23T19:09:44.674Z,96648.06
2023-05-23T19:12:12.488Z,96656.81
2023-05-23T19:14:41.896Z,96656.50
2023-05-23T19:17:09.664Z,96658.44
2023-05-23T19:19:39.416Z,96661.28
2023-05-23T19:22:12.884Z,96667.19
2023-05-23T19:24:46.568Z,96667.38
2023-05-23T19:27:17.301Z,96651.25
2023-05-23T19:29:51.717Z,96676.75
2023-05-23T19:32:22.226Z,96676.44
2023-05-23T19:34:50.238Z,96674.84
2023-05-23T19:37:18.136Z,96676.28
2023-05-23T19:39:46.757Z,96685.19
2023-05-23T19:42:14.621Z,96685.06
2023-05-23T19:44:45.205Z,96692.13
2023-05-23T19:47:17.749Z,96683.53
2023-05-23T19:49:46.912Z,96692.44
2023-05-23T19:52:16.568Z,96688.78
2023-05-23T19:54:45.455Z,96701.75
2023-05-23T19:57:19.863Z,96685.03
2023-05-23T19:59:53.649Z,96690.88
2023-05-23T20:02:26.542Z,96695.53
2023-05-23T20:05:15.903Z,96656.03
2023-05-23T20:07:43.890Z,96698.53
2023-05-23T20:10:16.568Z,96707.84
2023-05-23T20:12:48.063Z,96685.47
2023-05-23T20:15:21.790Z,96707.22
2023-05-23T20:17:57.606Z,96713.69
2023-05-23T20:20:25.996Z,96716.56
2023-05-23T20:22:55.408Z,96700.81
2023-05-23T20:25:26.347Z,96694.44
2023-05-23T20:27:54.198Z,96719.53
2023-05-23T20:30:22.350Z,96683.03
2023-05-23T20:32:55.808Z,96721.22
2023-05-23T20:35:27.856Z,96721.59
2023-05-23T20:37:55.656Z,96716.59
2023-05-23T20:40:26.445Z,96724.97
2023-05-23T20:42:54.577Z,96701.50
2023-05-23T20:45:28.714Z,96730.13
2023-05-23T20:47:59.534Z,96735.41
2023-05-23T20:50:33.737Z,96738.66
2023-05-23T20:53:03.771Z,96699.22
2023-05-23T20:55:35.853Z,96742.69
2023-05-23T20:58:08.794Z,96710.59
2023-05-23T21:00:36.982Z,96745.13
2023-05-23T21:03:04.908Z,96757.56
2023-05-23T21:05:34.554Z,96757.03
2023-05-23T21:08:04.169Z,96745.34
2023-05-23T21:10:36.313Z,96756.38
2023-05-23T21:13:06.921Z,96773.16
2023-05-23T21:15:37.256Z,96771.09
2023-05-23T21:18:05.350Z,96766.00
2023-05-23T21:20:39.079Z,96769.94
2023-05-23T21:23:08.969Z,96770.13
2023-05-23T21:25:39.299Z,96730.34
2023-05-23T21:28:10.102Z,96763.41
2023-05-23T21:30:43.891Z,96771.78
2023-05-23T21:33:12.655Z,96773.53
2023-05-23T21:35:45.240Z,96774.59
2023-05-23T21:38:13.942Z,96769.09
2023-05-23T21:40:46.576Z,96754.38
2023-05-23T21:43:19.989Z,96768.56
2023-05-23T21:45:47.856Z,96749.03
2023-05-23T21:48:18.755Z,96762.91
2023-05-23T21:50:49.715Z,96766.69
2023-05-23T21:53:19.846Z,96769.69
2023-05-23T21:55:55.325Z,96760.28
2023-05-23T21:58:24.149Z,96760.28
2023-05-23T22:01:01.064Z,96723.66
2023-05-23T22:03:31.332Z,96769.47
2023-05-23T22:06:00.975Z,96773.44
2023-05-23T22:08:33.146Z,96782.00
2023-05-23T22:11:02.309Z,96750.16
2023-05-23T22:13:30.531Z,96767.94
2023-05-23T22:15:58.656Z,96734.59
2023-05-23T22:18:51.184Z,96767.34
2023-05-23T22:21:27.607Z,96775.50
2023-05-23T22:23:57.900Z,96516.06
2023-05-23T22:26:33.579Z,96776.06
2023-05-23T22:29:04.551Z,96775.69
2023-05-23T22:31:32.380Z,96725.50
2023-05-23T22:34:01.022Z,96778.28
2023-05-23T22:36:33.810Z,96783.09
2023-05-23T22:39:05.419Z,96780.34
2023-05-23T22:41:33.492Z,96772.63
2023-05-23T22:44:01.342Z,96784.34
2023-05-23T22:46:32.108Z,96748.63
2023-05-23T22:49:04.835Z,96784.63
2023-05-23T22:51:35.857Z,96777.63
2023-05-23T22:54:06.673Z,96785.25
2023-05-23T22:56:34.824Z,96765.63
2023-05-23T22:59:02.618Z,96782.25
2023-05-23T23:01:37.606Z,96780.72
2023-05-23T23:04:07.439Z,96773.69
2023-05-23T23:06:37.805Z,96748.13
2023-05-23T23:09:11.680Z,96749.34
2023-05-23T23:11:47.069Z,96776.75
2023-05-23T23:14:15.398Z,96776.56
2023-05-23T23:16:45.886Z,96780.66
2023-05-23T23:19:13.846Z,96771.84
2023-05-23T23:21:43.119Z,96745.75
2023-05-23T23:24:14.325Z,96767.59
2023-05-23T23:26:45.100Z,96762.06
2023-05-23T23:29:13.248Z,96768.72
2023-05-23T23:31:46.207Z,96765.75
2023-05-23T23:34:19.272Z,96761.19
2023-05-23T23:36:50.568Z,96761.13
2023-05-23T23:39:21.938Z,96768.69
2023-05-23T23:41:50.655Z,96761.31
2023-05-23T23:44:24.150Z,96771.91
2023-05-23T23:46:52.339Z,96768.75
2023-05-23T23:49:20.468Z,96766.38
2023-05-23T23:51:50.647Z,96762.56
2023-05-23T23:54:20.925Z,96767.25
2023-05-23T23:56:55.281Z,96759.81
2023-05-23T23:59:23.073Z,96756.88
